createdAt,value
2018-11-29T00:00:05.736Z,28.05
2018-11-29T00:00:44.823Z,28.09
2018-11-29T00:01:22.493Z,28.10
2018-11-29T00:02:00.237Z,28.12
2018-11-29T00:02:37.947Z,28.14
2018-11-29T00:03:15.864Z,28.16
2018-11-29T00:03:53.800Z,28.18
2018-11-29T00:04:31.702Z,28.18
2018-11-29T00:05:10.159Z,28.21
2018-11-29T00:05:48.041Z,28.23
2018-11-29T00:06:25.776Z,28.25
2018-11-29T00:07:03.709Z,28.26
2018-11-29T00:07:41.474Z,28.28
2018-11-29T00:08:21.861Z,28.30
2018-11-29T00:08:59.715Z,28.33
2018-11-29T00:09:40.434Z,28.35
2018-11-29T00:10:18.308Z,28.38
2018-11-29T00:10:56.232Z,28.38
2018-11-29T00:11:34.080Z,28.40
2018-11-29T00:12:12.244Z,28.41
2018-11-29T00:12:50.054Z,28.46
2018-11-29T00:13:27.752Z,28.46
2018-11-29T00:14:05.389Z,28.47
2018-11-29T00:14:43.119Z,28.48
2018-11-29T00:15:21.149Z,28.50
2018-11-29T00:15:59.043Z,28.55
2018-11-29T00:16:36.823Z,28.55
2018-11-29T00:17:14.627Z,28.58
2018-11-29T00:17:53.113Z,28.62
2018-11-29T00:18:30.860Z,28.62
2018-11-29T00:19:08.736Z,28.64
2018-11-29T00:19:46.577Z,28.65
2018-11-29T00:20:24.723Z,28.68
2018-11-29T00:21:02.448Z,28.66
2018-11-29T00:21:40.245Z,28.67
2018-11-29T00:22:17.991Z,28.75
2018-11-29T00:22:56.134Z,28.80
2018-11-29T00:23:33.950Z,28.80
2018-11-29T00:24:11.736Z,28.83
2018-11-29T00:24:49.576Z,28.83
2018-11-29T00:25:27.499Z,28.80
2018-11-29T00:26:05.650Z,28.89
2018-11-29T00:26:43.344Z,28.93
2018-11-29T00:27:21.157Z,28.93
2018-11-29T00:27:58.960Z,28.95
2018-11-29T00:28:36.655Z,28.98
2018-11-29T00:29:14.564Z,28.98
2018-11-29T00:29:52.367Z,29.01
2018-11-29T00:30:30.183Z,29.02
2018-11-29T00:31:08.030Z,29.02
2018-11-29T00:32:04.255Z,29.10
2018-11-29T00:33:00.295Z,29.12
2018-11-29T00:33:38.098Z,29.12
2018-11-29T00:34:15.864Z,29.20
2018-11-29T00:34:53.663Z,29.24
2018-11-29T00:35:31.420Z,29.29
2018-11-29T00:36:09.163Z,29.29
2018-11-29T00:36:47.062Z,29.30
2018-11-29T00:37:24.833Z,29.33
2018-11-29T00:38:02.510Z,29.42
2018-11-29T00:38:40.214Z,29.44
2018-11-29T00:39:17.901Z,29.44
2018-11-29T00:39:55.536Z,29.51
2018-11-29T00:40:33.274Z,29.53
2018-11-29T00:41:11.083Z,29.53
2018-11-29T00:41:48.948Z,29.54
2018-11-29T00:42:26.719Z,29.63
2018-11-29T00:43:04.397Z,29.63
2018-11-29T00:43:42.227Z,29.65
2018-11-29T00:44:20.425Z,29.74
2018-11-29T00:45:00.961Z,29.77
2018-11-29T00:45:38.881Z,29.82
2018-11-29T00:46:16.740Z,29.85
2018-11-29T00:46:54.456Z,29.89
2018-11-29T00:47:32.314Z,29.89
2018-11-29T00:48:10.388Z,29.91
2018-11-29T00:48:48.170Z,29.92
2018-11-29T00:49:25.869Z,29.98
2018-11-29T00:50:03.835Z,29.99
2018-11-29T00:50:41.528Z,29.97
2018-11-29T00:51:19.284Z,30.02
2018-11-29T00:51:57.001Z,30.02
2018-11-29T00:52:34.828Z,30.11
2018-11-29T00:53:12.573Z,30.11
2018-11-29T00:53:50.346Z,30.16
2018-11-29T00:54:28.045Z,30.17
2018-11-29T00:55:05.801Z,30.18
2018-11-29T00:55:43.644Z,30.18
2018-11-29T00:56:21.284Z,30.20
2018-11-29T00:56:59.088Z,30.25
2018-11-29T00:57:36.857Z,30.31
2018-11-29T00:58:14.664Z,30.31
2018-11-29T00:58:52.428Z,30.35
2018-11-29T00:59:30.303Z,30.36
2018-11-29T01:00:10.525Z,30.45
2018-11-29T01:00:48.345Z,30.45
2018-11-29T01:01:26.192Z,30.51
2018-11-29T01:02:04.011Z,30.54
2018-11-29T01:02:41.705Z,30.55
2018-11-29T01:03:19.542Z,30.58
2018-11-29T01:03:57.318Z,30.62
2018-11-29T01:04:35.091Z,30.64
2018-11-29T01:05:12.954Z,30.68
2018-11-29T01:05:50.675Z,30.67
2018-11-29T01:06:28.552Z,30.74
2018-11-29T01:07:06.379Z,30.76
2018-11-29T01:07:44.237Z,30.80
2018-11-29T01:08:21.943Z,30.80
2018-11-29T01:08:59.805Z,30.81
2018-11-29T01:09:37.622Z,30.83
2018-11-29T01:10:21.302Z,30.85
2018-11-29T01:10:59.089Z,30.88
2018-11-29T01:11:36.931Z,30.91
2018-11-29T01:12:14.671Z,30.94
2018-11-29T01:12:52.726Z,30.96
2018-11-29T01:13:30.746Z,30.99
2018-11-29T01:14:08.641Z,31.00
2018-11-29T01:14:46.410Z,31.04
2018-11-29T01:15:24.843Z,31.07
2018-11-29T01:16:02.741Z,31.10
2018-11-29T01:16:40.639Z,31.13
2018-11-29T01:17:18.407Z,31.14
2018-11-29T01:17:56.149Z,31.17
2018-11-29T01:18:34.048Z,31.20
2018-11-29T01:19:12.057Z,31.22
2018-11-29T01:19:49.733Z,31.26
2018-11-29T01:20:27.712Z,31.29
2018-11-29T01:21:05.831Z,31.31
2018-11-29T01:21:43.608Z,31.34
2018-11-29T01:22:21.396Z,31.36
2018-11-29T01:22:59.174Z,31.38
2018-11-29T01:23:36.973Z,31.41
2018-11-29T01:24:14.938Z,31.42
2018-11-29T01:24:52.675Z,31.46
2018-11-29T01:25:31.002Z,31.47
2018-11-29T01:26:08.871Z,31.50
2018-11-29T01:26:46.632Z,31.53
2018-11-29T01:27:24.407Z,31.55
2018-11-29T01:28:02.351Z,31.58
2018-11-29T01:28:41.062Z,31.61
2018-11-29T01:29:18.753Z,31.63
2018-11-29T01:29:56.626Z,31.66
2018-11-29T01:30:34.513Z,31.68
2018-11-29T01:31:12.320Z,31.72
2018-11-29T01:31:50.264Z,31.75
2018-11-29T01:32:28.105Z,31.76
2018-11-29T01:33:05.954Z,31.79
2018-11-29T01:33:44.283Z,31.78
2018-11-29T01:34:22.123Z,31.78
2018-11-29T01:34:59.918Z,31.76
2018-11-29T01:35:37.884Z,31.75
2018-11-29T01:36:15.872Z,31.76
2018-11-29T01:36:53.668Z,31.79
2018-11-29T01:37:31.449Z,31.84
2018-11-29T01:38:09.307Z,31.89
2018-11-29T01:38:46.965Z,31.94
2018-11-29T01:39:24.714Z,31.98
2018-11-29T01:40:02.549Z,32.03
2018-11-29T01:40:40.268Z,32.05
2018-11-29T01:41:18.018Z,32.07
2018-11-29T01:41:58.094Z,32.10
2018-11-29T01:42:36.847Z,32.10
2018-11-29T01:43:14.551Z,32.14
2018-11-29T01:43:52.334Z,32.12
2018-11-29T01:44:31.176Z,32.10
2018-11-29T01:45:09.180Z,32.12
2018-11-29T01:45:46.948Z,32.15
2018-11-29T01:46:24.847Z,32.17
2018-11-29T01:47:02.796Z,32.20
2018-11-29T01:47:40.636Z,32.21
2018-11-29T01:48:18.299Z,32.22
2018-11-29T01:48:56.939Z,32.23
2018-11-29T01:49:34.942Z,32.21
2018-11-29T01:50:12.893Z,32.23
2018-11-29T01:50:50.812Z,32.29
2018-11-29T01:51:28.532Z,32.35
2018-11-29T01:52:06.407Z,32.37
2018-11-29T01:52:44.286Z,32.43
2018-11-29T01:53:21.978Z,32.48
2018-11-29T01:53:59.770Z,32.52
2018-11-29T01:54:37.545Z,32.54
2018-11-29T01:55:15.487Z,32.56
2018-11-29T01:55:53.272Z,32.61
2018-11-29T01:56:31.070Z,32.64
2018-11-29T01:57:08.875Z,32.68
2018-11-29T01:57:47.116Z,32.70
2018-11-29T01:58:26.625Z,32.70
2018-11-29T01:59:04.301Z,32.74
2018-11-29T01:59:41.981Z,32.75
2018-11-29T02:00:22.783Z,32.79
2018-11-29T02:01:00.748Z,32.81
2018-11-29T02:01:38.497Z,32.84
2018-11-29T02:02:16.537Z,32.87
2018-11-29T02:02:57.816Z,32.90
2018-11-29T02:03:35.477Z,32.93
2018-11-29T02:04:13.391Z,32.98
2018-11-29T02:04:51.288Z,33.02
2018-11-29T02:05:28.988Z,33.06
2018-11-29T02:06:06.765Z,33.08
2018-11-29T02:06:44.539Z,33.12
2018-11-29T02:07:22.371Z,33.13
2018-11-29T02:08:00.100Z,33.13
2018-11-29T02:08:37.992Z,33.14
2018-11-29T02:09:15.656Z,33.15
2018-11-29T02:10:11.696Z,33.18
2018-11-29T02:10:53.336Z,33.19
2018-11-29T02:11:31.394Z,33.24
2018-11-29T02:12:09.179Z,33.30
2018-11-29T02:12:47.027Z,33.34
2018-11-29T02:13:25.108Z,33.40
2018-11-29T02:14:02.864Z,33.46
2018-11-29T02:14:40.711Z,33.51
2018-11-29T02:15:18.570Z,33.52
2018-11-29T02:15:56.529Z,33.54
2018-11-29T02:16:34.328Z,33.54
2018-11-29T02:17:12.197Z,33.48
2018-11-29T02:17:50.012Z,33.43
2018-11-29T02:18:27.846Z,33.41
2018-11-29T02:19:05.658Z,33.43
2018-11-29T02:19:43.338Z,33.44
2018-11-29T02:20:22.036Z,33.47
2018-11-29T02:20:59.686Z,33.50
2018-11-29T02:21:40.490Z,33.51
2018-11-29T02:22:18.437Z,33.55
2018-11-29T02:22:56.084Z,33.57
2018-11-29T02:23:33.977Z,33.56
2018-11-29T02:24:11.885Z,33.57
2018-11-29T02:24:49.656Z,33.57
2018-11-29T02:25:27.627Z,33.57
2018-11-29T02:26:05.504Z,33.54
2018-11-29T02:26:43.500Z,33.54
2018-11-29T02:27:21.188Z,33.55
2018-11-29T02:27:59.165Z,33.56
2018-11-29T02:28:37.672Z,33.56
2018-11-29T02:29:15.702Z,33.59
2018-11-29T02:29:53.748Z,33.55
2018-11-29T02:30:31.494Z,33.43
2018-11-29T02:31:12.292Z,33.35
2018-11-29T02:31:50.197Z,33.35
2018-11-29T02:32:28.058Z,33.34
2018-11-29T02:33:05.751Z,33.37
2018-11-29T02:33:43.464Z,33.46
2018-11-29T02:34:21.373Z,33.47
2018-11-29T02:34:59.263Z,33.47
2018-11-29T02:35:37.094Z,33.49
2018-11-29T02:36:14.818Z,33.52
2018-11-29T02:36:52.588Z,33.56
2018-11-29T02:37:30.292Z,33.61
2018-11-29T02:38:08.310Z,33.65
2018-11-29T02:38:45.983Z,33.71
2018-11-29T02:39:23.649Z,33.75
2018-11-29T02:40:01.314Z,33.83
2018-11-29T02:40:39.011Z,33.89
2018-11-29T02:41:16.930Z,33.97
2018-11-29T02:41:54.835Z,34.03
2018-11-29T02:42:32.656Z,34.09
2018-11-29T02:43:10.845Z,34.08
2018-11-29T02:43:48.560Z,34.15
2018-11-29T02:44:26.383Z,34.10
2018-11-29T02:45:04.167Z,34.13
2018-11-29T02:45:41.955Z,34.17
2018-11-29T02:46:19.630Z,34.22
2018-11-29T02:46:57.325Z,34.25
2018-11-29T02:47:35.253Z,34.19
2018-11-29T02:48:12.991Z,34.12
2018-11-29T02:48:50.717Z,34.04
2018-11-29T02:49:30.796Z,33.91
2018-11-29T02:50:07.675Z,33.83
2018-11-29T02:50:46.139Z,33.76
2018-11-29T02:51:23.797Z,33.68
2018-11-29T02:52:01.594Z,33.59
2018-11-29T02:52:39.486Z,33.55
2018-11-29T02:53:17.578Z,33.58
2018-11-29T02:53:55.312Z,33.61
2018-11-29T02:54:34.356Z,33.65
2018-11-29T02:55:15.754Z,33.67
2018-11-29T02:55:53.768Z,33.62
2018-11-29T02:56:31.613Z,33.65
2018-11-29T02:57:09.527Z,33.64
2018-11-29T02:57:47.268Z,33.66
2018-11-29T02:58:25.161Z,33.71
2018-11-29T02:59:03.054Z,33.71
2018-11-29T02:59:40.860Z,33.72
2018-11-29T03:00:25.504Z,33.72
2018-11-29T03:01:03.407Z,33.74
2018-11-29T03:01:42.422Z,33.74
2018-11-29T03:02:20.221Z,33.76
2018-11-29T03:02:57.932Z,33.78
2018-11-29T03:03:37.354Z,33.77
2018-11-29T03:04:15.086Z,33.82
2018-11-29T03:04:52.941Z,33.84
2018-11-29T03:05:30.766Z,33.86
2018-11-29T03:06:08.681Z,33.80
2018-11-29T03:06:48.766Z,33.77
2018-11-29T03:07:26.737Z,33.76
2018-11-29T03:08:05.979Z,33.77
2018-11-29T03:08:43.831Z,33.85
2018-11-29T03:09:55.049Z,33.87
2018-11-29T03:10:36.211Z,33.88
2018-11-29T03:11:14.107Z,33.97
2018-11-29T03:11:52.018Z,34.03
2018-11-29T03:12:30.042Z,34.08
2018-11-29T03:13:11.941Z,34.11
2018-11-29T03:13:49.665Z,34.11
2018-11-29T03:14:27.777Z,34.08
2018-11-29T03:15:12.524Z,34.09
2018-11-29T03:15:50.404Z,34.05
2018-11-29T03:17:00.488Z,34.07
2018-11-29T03:18:46.634Z,34.09
2018-11-29T03:19:24.582Z,34.02
2018-11-29T03:20:02.567Z,34.03
2018-11-29T03:20:49.977Z,34.04
2018-11-29T03:21:27.853Z,34.03
2018-11-29T03:22:05.748Z,34.02
2018-11-29T03:22:44.257Z,33.93
2018-11-29T03:23:22.066Z,33.95
2018-11-29T03:24:03.791Z,33.91
2018-11-29T03:24:43.800Z,33.91
2018-11-29T03:25:21.679Z,33.84
2018-11-29T03:25:59.507Z,33.69
2018-11-29T03:26:37.303Z,33.59
2018-11-29T03:27:15.166Z,33.53
2018-11-29T03:27:53.047Z,33.48
2018-11-29T03:28:31.012Z,33.41
2018-11-29T03:29:36.908Z,33.35
2018-11-29T03:30:21.190Z,33.30
2018-11-29T03:30:59.136Z,33.25
2018-11-29T03:31:37.592Z,33.21
2018-11-29T03:32:15.433Z,33.24
2018-11-29T03:32:53.934Z,33.22
2018-11-29T03:33:31.861Z,33.18
2018-11-29T03:34:11.002Z,33.15
2018-11-29T03:35:32.416Z,33.11
2018-11-29T03:36:10.241Z,33.13
2018-11-29T03:36:48.185Z,33.25
2018-11-29T03:37:27.965Z,33.29
2018-11-29T03:38:04.684Z,33.34
2018-11-29T03:38:42.517Z,33.44
2018-11-29T03:39:20.357Z,33.49
2018-11-29T03:39:58.411Z,33.56
2018-11-29T03:40:44.141Z,33.61
2018-11-29T03:41:22.008Z,33.67
2018-11-29T03:41:59.962Z,33.68
2018-11-29T03:42:37.842Z,33.70
2018-11-29T03:43:15.832Z,33.70
2018-11-29T03:43:53.744Z,33.77
2018-11-29T03:44:31.660Z,33.80
2018-11-29T03:45:10.669Z,33.86
2018-11-29T03:46:48.904Z,33.94
2018-11-29T03:47:26.892Z,33.97
2018-11-29T03:48:04.778Z,33.99
2018-11-29T03:48:42.679Z,34.00
2018-11-29T03:49:20.637Z,33.99
2018-11-29T03:49:58.488Z,34.01
2018-11-29T03:50:36.400Z,34.05
2018-11-29T03:51:14.171Z,34.06
2018-11-29T03:52:18.884Z,34.11
2018-11-29T03:52:56.701Z,34.13
2018-11-29T03:53:34.592Z,34.17
2018-11-29T03:54:12.404Z,34.18
2018-11-29T03:54:50.365Z,34.21
2018-11-29T03:55:28.393Z,34.21
2018-11-29T03:56:06.431Z,34.18
2018-11-29T03:56:44.186Z,34.17
2018-11-29T04:01:37.300Z,34.30
2018-11-29T04:02:15.201Z,34.23
2018-11-29T04:02:53.192Z,34.27
2018-11-29T04:03:31.060Z,34.26
2018-11-29T04:04:08.991Z,34.26
2018-11-29T04:04:47.016Z,34.22
2018-11-29T04:05:25.894Z,34.22
2018-11-29T04:06:03.891Z,34.27
2018-11-29T04:06:41.725Z,34.29
2018-11-29T04:07:19.650Z,34.32
2018-11-29T04:07:57.593Z,34.36
2018-11-29T04:09:17.830Z,34.36
2018-11-29T04:10:38.541Z,34.30
2018-11-29T04:11:16.648Z,34.38
2018-11-29T04:11:54.622Z,34.38
2018-11-29T04:12:32.626Z,34.39
2018-11-29T04:13:10.802Z,34.43
2018-11-29T04:13:48.903Z,34.43
2018-11-29T04:14:26.988Z,34.45
2018-11-29T04:15:05.127Z,34.42
2018-11-29T04:15:43.254Z,34.44
2018-11-29T04:16:21.272Z,34.40
2018-11-29T04:16:59.365Z,34.38
2018-11-29T04:17:40.564Z,34.40
2018-11-29T04:18:16.168Z,34.37
2018-11-29T04:18:54.119Z,34.40
2018-11-29T04:19:32.214Z,34.38
2018-11-29T04:20:12.116Z,34.32
2018-11-29T04:20:55.875Z,34.33
2018-11-29T04:21:33.807Z,34.25
2018-11-29T04:22:11.628Z,34.27
2018-11-29T04:22:49.388Z,34.22
2018-11-29T04:23:27.225Z,34.20
2018-11-29T04:24:05.182Z,34.22
2018-11-29T04:24:43.061Z,34.22
2018-11-29T04:25:20.926Z,34.23
2018-11-29T04:25:58.874Z,34.22
2018-11-29T04:26:36.579Z,34.23
2018-11-29T04:27:14.382Z,34.25
2018-11-29T04:27:52.616Z,34.24
2018-11-29T04:28:30.513Z,34.27
2018-11-29T04:29:08.380Z,34.29
2018-11-29T04:29:48.543Z,34.30
2018-11-29T04:30:26.519Z,34.31
2018-11-29T04:31:04.304Z,34.28
2018-11-29T04:31:42.345Z,34.29
2018-11-29T04:32:20.109Z,34.32
2018-11-29T04:32:57.971Z,34.37
2018-11-29T04:33:35.672Z,34.42
2018-11-29T04:34:13.571Z,34.42
2018-11-29T04:34:51.407Z,34.42
2018-11-29T04:35:29.125Z,34.42
2018-11-29T04:36:06.739Z,34.38
2018-11-29T04:36:44.708Z,34.41
2018-11-29T04:37:22.737Z,34.43
2018-11-29T04:38:00.685Z,34.44
2018-11-29T04:38:38.499Z,34.41
2018-11-29T04:39:16.504Z,34.48
2018-11-29T04:39:54.213Z,34.49
2018-11-29T04:40:32.012Z,34.50
2018-11-29T04:41:09.999Z,34.53
2018-11-29T04:41:47.792Z,34.53
2018-11-29T04:42:25.666Z,34.52
2018-11-29T04:43:04.217Z,34.43
2018-11-29T04:43:42.398Z,34.40
2018-11-29T04:44:20.575Z,34.34
2018-11-29T04:44:58.565Z,34.38
2018-11-29T04:46:09.484Z,34.39
2018-11-29T04:46:56.568Z,34.44
2018-11-29T04:47:34.283Z,34.49
2018-11-29T04:48:12.212Z,34.57
2018-11-29T04:48:50.068Z,34.58
2018-11-29T04:49:27.939Z,34.61
2018-11-29T04:50:05.815Z,34.66
2018-11-29T04:50:43.734Z,34.65
2018-11-29T04:51:21.498Z,34.65
2018-11-29T04:51:59.455Z,34.68
2018-11-29T04:52:37.259Z,34.65
2018-11-29T04:53:17.795Z,34.67
2018-11-29T04:53:55.656Z,34.67
2018-11-29T04:54:33.702Z,34.70
2018-11-29T04:55:12.357Z,34.74
2018-11-29T04:55:50.227Z,34.73
2018-11-29T04:56:27.967Z,34.73
2018-11-29T04:57:05.714Z,34.73
2018-11-29T04:57:44.036Z,34.74
2018-11-29T04:58:22.635Z,34.66
2018-11-29T04:59:00.505Z,34.65
2018-11-29T04:59:38.367Z,34.64
2018-11-29T05:00:22.331Z,34.62
2018-11-29T05:01:00.146Z,34.63
2018-11-29T05:01:38.283Z,34.64
2018-11-29T05:02:16.217Z,34.66
2018-11-29T05:02:53.936Z,34.64
2018-11-29T05:03:31.914Z,34.63
2018-11-29T05:04:10.161Z,34.63
2018-11-29T05:04:48.072Z,34.66
2018-11-29T05:05:26.045Z,34.67
2018-11-29T05:06:04.120Z,34.73
2018-11-29T05:06:45.001Z,34.76
2018-11-29T05:07:22.842Z,34.78
2018-11-29T05:08:00.657Z,34.77
2018-11-29T05:08:38.417Z,34.77
2018-11-29T05:09:16.177Z,34.79
2018-11-29T05:09:54.106Z,34.79
2018-11-29T05:10:31.892Z,34.77
2018-11-29T05:11:10.074Z,34.77
2018-11-29T05:11:47.891Z,34.78
2018-11-29T05:12:25.681Z,34.70
2018-11-29T05:13:03.679Z,34.62
2018-11-29T05:13:41.526Z,34.66
2018-11-29T05:14:19.559Z,34.65
2018-11-29T05:14:57.535Z,34.68
2018-11-29T05:15:35.602Z,34.64
2018-11-29T05:16:13.328Z,34.64
2018-11-29T05:16:51.252Z,34.65
2018-11-29T05:17:29.157Z,34.65
2018-11-29T05:18:07.270Z,34.63
2018-11-29T05:18:45.089Z,34.68
2018-11-29T05:19:22.671Z,34.70
2018-11-29T05:20:00.470Z,34.75
2018-11-29T05:20:38.380Z,34.74
2018-11-29T05:21:16.246Z,34.74
2018-11-29T05:21:54.182Z,34.71
2018-11-29T05:22:31.915Z,34.63
2018-11-29T05:23:09.718Z,34.65
2018-11-29T05:23:47.426Z,34.69
2018-11-29T05:24:25.367Z,34.74
2018-11-29T05:25:03.236Z,34.75
2018-11-29T05:25:40.976Z,34.77
2018-11-29T05:26:18.705Z,34.79
2018-11-29T05:26:56.518Z,34.78
2018-11-29T05:27:34.253Z,34.78
2018-11-29T05:28:12.127Z,34.73
2018-11-29T05:28:49.807Z,34.68
2018-11-29T05:29:27.639Z,34.62
2018-11-29T05:30:05.454Z,34.62
2018-11-29T05:30:43.180Z,34.65
2018-11-29T05:31:21.023Z,34.67
2018-11-29T05:31:58.856Z,34.69
2018-11-29T05:32:36.681Z,34.71
2018-11-29T05:33:14.640Z,34.76
2018-11-29T05:33:52.403Z,34.74
2018-11-29T05:34:30.074Z,34.74
2018-11-29T05:35:08.812Z,34.72
2018-11-29T05:35:46.452Z,34.76
2018-11-29T05:36:24.116Z,34.75
2018-11-29T05:37:01.976Z,34.73
2018-11-29T05:37:39.834Z,34.76
2018-11-29T05:38:17.661Z,34.78
2018-11-29T05:38:55.295Z,34.80
2018-11-29T05:39:32.993Z,34.80
2018-11-29T05:40:15.628Z,34.82
2018-11-29T05:40:53.446Z,34.83
2018-11-29T05:41:31.207Z,34.85
2018-11-29T05:42:09.123Z,34.83
2018-11-29T05:42:47.046Z,34.82
2018-11-29T05:43:24.783Z,34.83
2018-11-29T05:44:02.496Z,34.83
2018-11-29T05:44:40.357Z,34.82
2018-11-29T05:45:18.266Z,34.82
2018-11-29T05:45:55.993Z,34.72
2018-11-29T05:46:33.872Z,34.69
2018-11-29T05:47:11.649Z,34.70
2018-11-29T05:47:49.409Z,34.74
2018-11-29T05:48:27.248Z,34.69
2018-11-29T05:49:05.065Z,34.67
2018-11-29T05:49:42.929Z,34.65
2018-11-29T05:50:20.821Z,34.66
2018-11-29T05:50:58.762Z,34.60
2018-11-29T05:51:36.696Z,34.64
2018-11-29T05:52:14.445Z,34.66
2018-11-29T05:52:52.331Z,34.70
2018-11-29T05:53:30.152Z,34.69
2018-11-29T05:54:08.244Z,34.70
2018-11-29T05:54:46.161Z,34.75
2018-11-29T05:55:24.067Z,34.77
2018-11-29T05:56:01.773Z,34.81
2018-11-29T05:56:39.702Z,34.84
2018-11-29T05:57:17.413Z,34.88
2018-11-29T05:57:55.115Z,34.90
2018-11-29T05:58:33.134Z,34.93
2018-11-29T05:59:11.268Z,34.95
2018-11-29T05:59:49.042Z,34.93
2018-11-29T06:00:27.143Z,34.86
2018-11-29T06:01:10.397Z,34.80
2018-11-29T06:01:49.051Z,34.74
2018-11-29T06:02:26.738Z,34.65
2018-11-29T06:03:04.600Z,34.60
2018-11-29T06:03:42.381Z,34.53
2018-11-29T06:04:20.136Z,34.49
2018-11-29T06:04:58.107Z,34.48
2018-11-29T06:05:35.890Z,34.51
2018-11-29T06:06:13.651Z,34.53
2018-11-29T06:06:51.324Z,34.52
2018-11-29T06:07:29.110Z,34.51
2018-11-29T06:08:06.900Z,34.56
2018-11-29T06:08:44.602Z,34.62
2018-11-29T06:09:22.234Z,34.65
2018-11-29T06:10:00.196Z,34.66
2018-11-29T06:10:38.044Z,34.65
2018-11-29T06:11:15.874Z,34.69
2018-11-29T06:11:53.795Z,34.67
2018-11-29T06:12:31.541Z,34.65
2018-11-29T06:13:09.479Z,34.62
2018-11-29T06:13:47.448Z,34.62
2018-11-29T06:14:25.381Z,34.61
2018-11-29T06:15:03.311Z,34.57
2018-11-29T06:15:41.162Z,34.59
2018-11-29T06:16:18.935Z,34.58
2018-11-29T06:16:56.780Z,34.58
2018-11-29T06:17:34.650Z,34.58
2018-11-29T06:18:12.566Z,34.56
2018-11-29T06:18:50.464Z,34.56
2018-11-29T06:19:28.429Z,34.55
2018-11-29T06:20:06.528Z,34.53
2018-11-29T06:20:44.297Z,34.50
2018-11-29T06:21:22.199Z,34.48
2018-11-29T06:22:00.143Z,34.43
2018-11-29T06:22:37.953Z,34.39
2018-11-29T06:23:15.629Z,34.36
2018-11-29T06:23:53.469Z,34.32
2018-11-29T06:24:31.208Z,34.28
2018-11-29T06:25:09.002Z,34.22
2018-11-29T06:25:46.821Z,34.18
2018-11-29T06:26:24.755Z,34.12
2018-11-29T06:27:02.558Z,34.08
2018-11-29T06:27:40.365Z,34.04
2018-11-29T06:28:18.215Z,34.01
2018-11-29T06:28:56.098Z,33.96
2018-11-29T06:29:34.008Z,33.93
2018-11-29T06:30:19.174Z,33.90
2018-11-29T06:30:56.942Z,33.84
2018-11-29T06:31:34.825Z,33.78
2018-11-29T06:32:12.553Z,33.73
2018-11-29T06:32:50.795Z,33.70
2018-11-29T06:33:28.701Z,33.65
2018-11-29T06:34:06.579Z,33.62
2018-11-29T06:34:44.499Z,33.58
2018-11-29T06:35:22.423Z,33.54
2018-11-29T06:36:02.135Z,33.53
2018-11-29T06:36:38.753Z,33.50
2018-11-29T06:37:16.473Z,33.48
2018-11-29T06:37:54.358Z,33.46
2018-11-29T06:38:32.094Z,33.43
2018-11-29T06:39:11.939Z,33.42
2018-11-29T06:39:49.644Z,33.38
2018-11-29T06:40:27.205Z,33.36
2018-11-29T06:41:05.183Z,33.33
2018-11-29T06:41:42.770Z,33.32
2018-11-29T06:42:20.489Z,33.30
2018-11-29T06:42:58.322Z,33.30
2018-11-29T06:43:36.062Z,33.29
2018-11-29T06:44:13.886Z,33.27
2018-11-29T06:44:51.806Z,33.27
2018-11-29T06:45:29.701Z,33.22
2018-11-29T06:46:07.866Z,33.18
2018-11-29T06:46:45.615Z,33.16
2018-11-29T06:47:23.450Z,33.16
2018-11-29T06:48:01.136Z,33.12
2018-11-29T06:48:38.897Z,33.08
2018-11-29T06:49:16.506Z,33.06
2018-11-29T06:49:54.281Z,33.04
2018-11-29T06:50:32.131Z,32.98
2018-11-29T06:51:10.076Z,32.98
2018-11-29T06:51:47.848Z,32.97
2018-11-29T06:52:25.551Z,32.97
2018-11-29T06:53:04.142Z,32.96
2018-11-29T06:54:01.181Z,32.94
2018-11-29T06:54:39.058Z,32.91
2018-11-29T06:55:23.714Z,32.89
2018-11-29T06:56:01.421Z,32.89
2018-11-29T06:56:39.240Z,32.84
2018-11-29T06:57:17.022Z,32.81
2018-11-29T06:57:55.257Z,32.79
2018-11-29T06:58:33.250Z,32.78
2018-11-29T06:59:10.973Z,32.72
2018-11-29T06:59:48.677Z,32.71
2018-11-29T07:00:35.668Z,32.67
2018-11-29T07:01:13.574Z,32.65
2018-11-29T07:01:51.395Z,32.63
2018-11-29T07:02:29.080Z,32.61
2018-11-29T07:03:06.902Z,32.54
2018-11-29T07:03:44.898Z,32.48
2018-11-29T07:04:22.825Z,32.41
2018-11-29T07:05:00.567Z,32.38
2018-11-29T07:05:38.339Z,32.33
2018-11-29T07:06:16.308Z,32.28
2018-11-29T07:06:54.099Z,32.20
2018-11-29T07:07:31.782Z,32.15
2018-11-29T07:08:09.103Z,32.08
2018-11-29T07:08:46.988Z,32.04
2018-11-29T07:09:24.702Z,31.98
2018-11-29T07:10:02.447Z,31.93
2018-11-29T07:10:40.334Z,31.85
2018-11-29T07:11:18.276Z,31.76
2018-11-29T07:11:56.078Z,31.70
2018-11-29T07:12:33.911Z,31.63
2018-11-29T07:13:12.099Z,31.58
2018-11-29T07:13:49.992Z,31.49
2018-11-29T07:14:27.733Z,31.38
2018-11-29T07:15:05.658Z,31.27
2018-11-29T07:15:43.686Z,31.23
2018-11-29T07:16:21.540Z,31.18
2018-11-29T07:16:59.326Z,31.14
2018-11-29T07:17:37.081Z,31.08
2018-11-29T07:18:14.876Z,31.05
2018-11-29T07:18:52.563Z,31.01
2018-11-29T07:19:30.264Z,30.91
2018-11-29T07:20:11.975Z,30.87
2018-11-29T07:21:24.429Z,30.83
2018-11-29T07:22:02.215Z,30.78
2018-11-29T07:22:40.111Z,30.68
2018-11-29T07:23:17.917Z,30.66
2018-11-29T07:23:55.648Z,30.59
2018-11-29T07:24:33.274Z,30.58
2018-11-29T07:25:12.089Z,30.51
2018-11-29T07:25:49.933Z,30.47
2018-11-29T07:26:27.834Z,30.43
2018-11-29T07:27:05.559Z,30.38
2018-11-29T07:27:43.679Z,30.31
2018-11-29T07:28:21.460Z,30.26
2018-11-29T07:28:59.328Z,30.21
2018-11-29T07:29:37.204Z,30.17
2018-11-29T07:30:33.269Z,30.01
2018-11-29T07:31:11.319Z,30.01
2018-11-29T07:31:49.309Z,29.91
2018-11-29T07:32:27.970Z,29.72
2018-11-29T07:33:05.684Z,29.72
2018-11-29T07:33:43.395Z,29.72
2018-11-29T07:34:21.308Z,29.64
2018-11-29T07:34:59.063Z,29.55
2018-11-29T07:35:36.740Z,29.55
2018-11-29T07:36:17.506Z,29.56
2018-11-29T07:36:55.342Z,29.46
2018-11-29T07:37:33.059Z,29.40
2018-11-29T07:38:11.005Z,29.40
2018-11-29T07:38:48.779Z,29.32
2018-11-29T07:39:26.705Z,29.28
2018-11-29T07:40:04.508Z,29.28
2018-11-29T07:40:42.424Z,29.27
2018-11-29T07:41:20.175Z,29.26
2018-11-29T07:41:58.060Z,29.26
2018-11-29T07:42:35.879Z,29.28
2018-11-29T07:43:13.746Z,29.28
2018-11-29T07:43:51.628Z,29.27
2018-11-29T07:44:29.516Z,29.27
2018-11-29T07:45:09.338Z,29.27
2018-11-29T07:45:47.089Z,29.23
2018-11-29T07:46:24.961Z,29.25
2018-11-29T07:47:03.521Z,29.25
2018-11-29T07:47:41.269Z,29.27
2018-11-29T07:48:19.683Z,29.28
2018-11-29T07:48:57.376Z,29.29
2018-11-29T07:49:34.945Z,29.29
2018-11-29T07:50:14.563Z,29.35
2018-11-29T07:50:52.355Z,29.35
2018-11-29T07:51:30.098Z,29.37
2018-11-29T07:52:07.975Z,29.36
2018-11-29T07:52:45.774Z,29.36
2018-11-29T07:53:23.498Z,29.38
2018-11-29T07:54:01.181Z,29.41
2018-11-29T07:54:38.958Z,29.41
2018-11-29T07:55:17.878Z,29.38
2018-11-29T07:55:55.853Z,29.36
2018-11-29T07:56:33.679Z,29.36
2018-11-29T07:57:11.412Z,29.30
2018-11-29T07:57:49.849Z,29.20
2018-11-29T07:58:27.707Z,29.20
2018-11-29T07:59:05.672Z,29.18
2018-11-29T07:59:43.454Z,29.16
2018-11-29T08:00:21.430Z,29.16
2018-11-29T08:00:59.137Z,29.13
2018-11-29T08:01:37.043Z,29.13
2018-11-29T08:02:14.774Z,29.09
2018-11-29T08:02:52.736Z,29.09
2018-11-29T08:03:30.424Z,29.12
2018-11-29T08:04:08.466Z,29.12
2018-11-29T08:04:46.203Z,29.09
2018-11-29T08:05:24.087Z,29.05
2018-11-29T08:06:01.981Z,29.02
2018-11-29T08:06:39.824Z,29.01
2018-11-29T08:07:17.849Z,29.01
2018-11-29T08:07:55.730Z,28.98
2018-11-29T08:08:33.609Z,28.96
2018-11-29T08:09:11.878Z,28.95
2018-11-29T08:09:49.633Z,28.99
2018-11-29T08:10:27.296Z,29.03
2018-11-29T08:11:05.274Z,29.03
2018-11-29T08:11:43.181Z,29.00
2018-11-29T08:12:21.417Z,29.05
2018-11-29T08:12:59.220Z,29.05
2018-11-29T08:13:37.081Z,29.06
2018-11-29T08:14:15.022Z,29.08
2018-11-29T08:14:52.928Z,29.08
2018-11-29T08:15:30.811Z,29.05
2018-11-29T08:16:08.986Z,29.05
2018-11-29T08:16:46.788Z,29.03
2018-11-29T08:17:24.739Z,29.10
2018-11-29T08:18:02.592Z,29.10
2018-11-29T08:18:40.397Z,29.10
2018-11-29T08:19:18.232Z,29.12
2018-11-29T08:19:55.950Z,29.12
2018-11-29T08:20:33.748Z,29.12
2018-11-29T08:21:11.495Z,29.12
2018-11-29T08:21:49.333Z,29.12
2018-11-29T08:22:27.107Z,29.12
2018-11-29T08:23:04.874Z,29.12
2018-11-29T08:23:42.760Z,29.12